KLAA/LAA METAR and TAF weather

Enter ICAO airport designator
Station Type Date Time Source
KLAA METAR 2020/09/22 19:53 UTC NOAA

KLAA 221953Z AUTO 13009KT 10SM CLR 31/07 A3003 RMK AO2 SLP118 T03060072 PNO $


Station Type Date Time Source
KLAA Decoded METAR 2020/09/22 19:53 UTC NOAA

LAMAR MUNICIPAL AIRPORT, CO, United States (KLAA) 38-04N 102-41W 1119M
Sep 22, 2020 - 03:53 PM EDT / 2020.09.22 1953 UTC
Wind: from the SE (130 degrees) at 10 MPH (9 KT):0
Visibility: 10 mile(s):0
Sky conditions: clear
Temperature: 87.1 F (30.6 C)
Dew Point: 45.0 F (7.2 C)
Relative Humidity: 23%
Pressure (altimeter): 30.03 in. Hg (1016 hPa)
ob: KLAA 221953Z AUTO 13009KT 10SM CLR 31/07 A3003 RMK AO2 SLP118 T03060072 PNO
cycle: 20

Station Type Date Time Source
KLAA TAF UTC NOAA

Error!

Example: see airport list